createdAt,value
2018-03-20T00:02:10.993Z,17.10
2018-03-20T00:04:37.238Z,14.43
2018-03-20T00:07:03.509Z,17.87
2018-03-20T00:09:29.792Z,15.90
2018-03-20T00:11:56.084Z,17.17
2018-03-20T00:14:33.260Z,17.30
2018-03-20T00:16:59.490Z,17.47
2018-03-20T00:19:25.738Z,18.17
2018-03-20T00:21:51.972Z,15.13
2018-03-20T00:24:18.211Z,16.73
2018-03-20T00:26:44.425Z,17.83
2018-03-20T00:29:10.728Z,15.47
2018-03-20T00:31:37.717Z,17.57
2018-03-20T00:34:03.980Z,15.47
2018-03-20T00:36:30.271Z,15.40
2018-03-20T00:38:56.522Z,14.43
2018-03-20T00:41:22.893Z,16.33
2018-03-20T00:43:49.178Z,16.43
2018-03-20T00:46:15.414Z,16.03
2018-03-20T00:48:41.671Z,14.57
2018-03-20T00:51:07.947Z,17.47
2018-03-20T00:53:36.912Z,12.53
2018-03-20T00:56:03.976Z,15.47
2018-03-20T00:58:30.967Z,15.47
2018-03-20T01:00:57.219Z,13.80
2018-03-20T01:03:23.506Z,16.73
2018-03-20T01:05:50.243Z,15.13
2018-03-20T01:08:16.459Z,18.93
2018-03-20T01:10:42.707Z,12.43
2018-03-20T01:13:19.725Z,14.83
2018-03-20T01:15:45.963Z,14.90
2018-03-20T01:18:12.268Z,15.60
2018-03-20T01:20:38.505Z,17.03
2018-03-20T01:23:04.763Z,15.77
2018-03-20T01:25:31.067Z,15.20
2018-03-20T01:27:58.098Z,17.50
2018-03-20T01:30:24.340Z,15.33
2018-03-20T01:32:50.581Z,20.23
2018-03-20T01:35:16.835Z,15.93
2018-03-20T01:37:43.868Z,16.70
2018-03-20T01:40:10.095Z,16.07
2018-03-20T01:42:36.273Z,16.37
2018-03-20T01:45:02.582Z,16.60
2018-03-20T01:47:28.864Z,15.40
2018-03-20T01:49:55.869Z,15.60
2018-03-20T01:52:24.761Z,14.87
2018-03-20T01:54:54.558Z,18.03
2018-03-20T01:57:21.576Z,17.87
2018-03-20T01:59:47.808Z,17.53
2018-03-20T02:02:14.121Z,19.57
2018-03-20T02:04:40.508Z,16.60
2018-03-20T02:07:06.736Z,16.97
2018-03-20T02:09:39.064Z,14.27
2018-03-20T02:12:06.060Z,17.97
2018-03-20T02:14:32.345Z,15.77
2018-03-20T02:16:58.620Z,16.90
2018-03-20T02:19:24.970Z,16.00
2018-03-20T02:21:55.530Z,14.20
2018-03-20T02:24:21.807Z,16.70
2018-03-20T02:26:48.019Z,16.10
2018-03-20T02:29:14.296Z,15.07
2018-03-20T02:31:40.847Z,17.70
2018-03-20T02:34:07.138Z,15.90
2018-03-20T02:36:33.376Z,16.50
2018-03-20T02:38:59.604Z,15.07
2018-03-20T02:41:25.895Z,15.63
2018-03-20T02:43:52.145Z,18.57
2018-03-20T02:46:21.178Z,18.80
2018-03-20T02:48:48.208Z,14.37
2018-03-20T02:51:14.484Z,15.20
2018-03-20T02:53:41.515Z,17.07
2018-03-20T02:56:07.786Z,21.97
2018-03-20T02:58:34.759Z,16.57
2018-03-20T03:01:01.724Z,14.17
2018-03-20T03:03:28.031Z,15.20
2018-03-20T03:05:54.502Z,15.40
2018-03-20T03:08:41.514Z,14.33
2018-03-20T03:11:07.775Z,17.00
2018-03-20T03:13:34.026Z,15.10
2018-03-20T03:16:00.334Z,15.67
2018-03-20T03:18:26.575Z,13.67
2018-03-20T03:20:52.813Z,16.57
2018-03-20T03:23:19.130Z,17.93
2018-03-20T03:25:46.126Z,16.87
2018-03-20T03:28:18.372Z,14.03
2018-03-20T03:30:44.744Z,16.47
2018-03-20T03:33:12.081Z,13.13
2018-03-20T03:35:41.696Z,14.13
2018-03-20T03:38:08.683Z,16.13
2018-03-20T03:40:34.945Z,12.77
2018-03-20T03:43:01.952Z,19.87
2018-03-20T03:45:29.224Z,21.23
2018-03-20T03:47:55.519Z,14.93
2018-03-20T03:50:22.590Z,16.87
2018-03-20T03:52:48.888Z,14.87
2018-03-20T03:55:15.233Z,16.23
2018-03-20T03:57:41.508Z,13.57
2018-03-20T04:03:06.874Z,17.60
2018-03-20T04:05:33.099Z,17.73
2018-03-20T04:08:00.073Z,13.47
2018-03-20T04:10:26.323Z,13.20
2018-03-20T04:12:52.598Z,17.63
2018-03-20T04:15:19.001Z,13.47
2018-03-20T04:17:45.266Z,14.00
2018-03-20T04:20:11.654Z,15.13
2018-03-20T04:22:37.984Z,14.37
2018-03-20T04:25:04.252Z,16.67
2018-03-20T04:27:30.527Z,14.90
2018-03-20T04:30:01.229Z,21.33
2018-03-20T04:32:28.296Z,18.37
2018-03-20T04:34:54.598Z,13.73
2018-03-20T04:37:20.850Z,14.50
2018-03-20T04:39:47.143Z,13.53
2018-03-20T04:42:13.462Z,13.63
2018-03-20T04:44:40.747Z,17.90
2018-03-20T04:47:07.782Z,16.90
2018-03-20T04:49:34.039Z,15.60
2018-03-20T04:52:01.113Z,17.57
2018-03-20T04:54:27.414Z,19.67
2018-03-20T04:56:53.758Z,20.93
2018-03-20T04:59:20.030Z,19.43
2018-03-20T05:01:52.802Z,17.97
2018-03-20T05:04:19.090Z,17.97
2018-03-20T05:06:45.366Z,14.67
2018-03-20T05:09:11.677Z,16.93
2018-03-20T05:11:57.508Z,17.27
2018-03-20T05:14:23.762Z,16.40
2018-03-20T05:16:50.096Z,16.10
2018-03-20T05:19:19.372Z,19.23
2018-03-20T05:21:47.541Z,16.70
2018-03-20T05:24:14.551Z,14.03
2018-03-20T05:26:41.011Z,16.40
2018-03-20T05:29:07.319Z,17.40
2018-03-20T05:31:33.610Z,16.27
2018-03-20T05:34:00.915Z,23.83
2018-03-20T05:36:27.220Z,19.13
2018-03-20T05:38:53.480Z,16.77
2018-03-20T05:41:20.507Z,15.90
2018-03-20T05:43:47.268Z,14.23
2018-03-20T05:46:13.563Z,17.03
2018-03-20T05:51:49.757Z,15.63
2018-03-20T05:54:16.652Z,17.80
2018-03-20T05:56:42.928Z,17.10
2018-03-20T05:59:09.095Z,13.70
2018-03-20T06:01:41.695Z,16.23
2018-03-20T06:04:07.897Z,15.40
2018-03-20T06:06:34.094Z,14.13
2018-03-20T06:09:00.308Z,16.07
2018-03-20T06:11:27.207Z,16.80
2018-03-20T06:13:53.393Z,18.83
2018-03-20T06:16:19.533Z,15.40
2018-03-20T06:18:45.737Z,16.50
2018-03-20T06:21:12.093Z,15.93
2018-03-20T06:23:38.272Z,18.13
2018-03-20T06:26:05.186Z,17.60
2018-03-20T06:28:31.380Z,16.50
2018-03-20T06:30:57.549Z,15.47
2018-03-20T06:33:23.674Z,17.60
2018-03-20T06:35:49.871Z,15.33
2018-03-20T06:38:16.322Z,18.37
2018-03-20T06:40:43.506Z,17.07
2018-03-20T06:43:09.640Z,16.67
2018-03-20T06:45:35.818Z,22.17
2018-03-20T06:48:02.068Z,23.80
2018-03-20T06:50:28.266Z,15.17
2018-03-20T06:52:54.661Z,15.03
2018-03-20T06:55:20.813Z,15.07
2018-03-20T06:57:47.042Z,14.73
2018-03-20T07:00:13.216Z,15.43
2018-03-20T07:02:40.149Z,16.57
2018-03-20T07:05:06.301Z,15.67
2018-03-20T07:07:42.773Z,14.00
2018-03-20T07:10:08.932Z,16.77
2018-03-20T07:12:35.072Z,15.00
2018-03-20T07:15:02.006Z,14.53
2018-03-20T07:17:28.319Z,13.73
2018-03-20T07:19:54.610Z,17.00
2018-03-20T07:22:21.621Z,17.20
2018-03-20T07:24:47.809Z,16.77
2018-03-20T07:27:14.719Z,16.50
2018-03-20T07:29:41.106Z,16.87
2018-03-20T07:32:08.040Z,13.93
2018-03-20T07:34:34.259Z,12.83
2018-03-20T07:37:12.373Z,12.40
2018-03-20T07:39:38.536Z,16.97
2018-03-20T07:42:04.696Z,14.13
2018-03-20T07:44:30.853Z,14.90
2018-03-20T07:46:57.801Z,15.43
2018-03-20T07:49:24.713Z,21.10
2018-03-20T07:51:50.900Z,14.20
2018-03-20T07:54:17.784Z,14.63
2018-03-20T07:56:43.998Z,18.93
2018-03-20T07:59:11.232Z,16.37
2018-03-20T08:01:37.416Z,11.67
2018-03-20T08:04:04.348Z,18.47
2018-03-20T08:06:32.315Z,21.80
2018-03-20T08:08:58.493Z,17.23
2018-03-20T08:11:24.699Z,13.60
2018-03-20T08:13:51.008Z,16.50
2018-03-20T08:16:17.414Z,17.30
2018-03-20T08:18:44.416Z,17.47
2018-03-20T08:21:10.610Z,13.43
2018-03-20T08:23:37.621Z,16.77
2018-03-20T08:26:03.811Z,17.60
2018-03-20T08:28:30.697Z,15.77
2018-03-20T08:30:56.951Z,17.03
2018-03-20T08:33:23.120Z,14.27
2018-03-20T08:35:49.341Z,14.63
2018-03-20T08:38:15.892Z,14.17
2018-03-20T08:40:42.472Z,16.00
2018-03-20T08:43:09.873Z,14.20
2018-03-20T08:45:36.148Z,14.60
2018-03-20T08:48:02.447Z,14.57
2018-03-20T08:50:28.740Z,12.20
2018-03-20T08:52:54.973Z,16.43
2018-03-20T08:55:21.435Z,13.97
2018-03-20T08:57:47.718Z,13.40
2018-03-20T09:00:14.040Z,13.50
2018-03-20T09:02:41.245Z,13.37
2018-03-20T09:05:07.559Z,21.03
2018-03-20T09:07:33.887Z,17.43
2018-03-20T09:10:00.900Z,16.37
2018-03-20T09:12:27.345Z,15.67
2018-03-20T09:14:54.308Z,16.33
2018-03-20T09:17:20.589Z,16.57
2018-03-20T09:19:47.590Z,13.80
2018-03-20T09:22:13.866Z,16.20
2018-03-20T09:24:41.006Z,17.83
2018-03-20T09:27:07.405Z,13.63
2018-03-20T09:29:34.503Z,13.43
2018-03-20T09:32:00.779Z,23.37
2018-03-20T09:34:27.087Z,10.03
2018-03-20T09:36:53.392Z,13.87
2018-03-20T09:39:19.638Z,12.07
2018-03-20T09:41:47.020Z,12.67
2018-03-20T09:47:09.710Z,16.20
2018-03-20T09:49:36.011Z,18.83
2018-03-20T09:52:02.397Z,17.07
2018-03-20T09:54:28.742Z,11.30
2018-03-20T09:56:55.001Z,15.70
2018-03-20T09:59:21.268Z,14.07
2018-03-20T10:01:47.547Z,11.50
2018-03-20T10:04:14.551Z,12.30
2018-03-20T10:06:40.890Z,15.00
2018-03-20T10:09:07.579Z,15.53
2018-03-20T10:11:33.915Z,10.47
2018-03-20T10:14:00.360Z,18.67
2018-03-20T10:16:26.578Z,11.13
2018-03-20T10:18:52.855Z,13.00
2018-03-20T10:21:19.221Z,10.03
2018-03-20T10:23:46.442Z,11.17
2018-03-20T10:26:12.769Z,6.77
2018-03-20T10:28:39.039Z,7.00
2018-03-20T10:31:05.384Z,7.30
2018-03-20T10:33:31.664Z,8.40
2018-03-20T10:35:58.710Z,8.63
2018-03-20T10:38:25.796Z,7.60
2018-03-20T10:40:52.106Z,5.50
2018-03-20T10:43:18.372Z,6.63
2018-03-20T10:45:46.480Z,7.20
2018-03-20T10:48:13.578Z,8.07
2018-03-20T10:50:40.618Z,5.93
2018-03-20T10:53:12.781Z,5.93
2018-03-20T10:55:39.036Z,7.67
2018-03-20T10:58:05.517Z,5.77
2018-03-20T11:00:37.632Z,7.80
2018-03-20T11:03:08.027Z,7.27
2018-03-20T11:05:39.842Z,6.70
2018-03-20T11:08:06.156Z,6.67
2018-03-20T11:10:32.414Z,6.87
2018-03-20T11:12:59.395Z,6.70
2018-03-20T11:15:25.693Z,6.63
2018-03-20T11:17:52.034Z,8.90
2018-03-20T11:20:18.350Z,8.23
2018-03-20T11:22:44.749Z,7.27
2018-03-20T11:25:17.072Z,7.97
2018-03-20T11:27:43.388Z,8.07
2018-03-20T11:30:09.981Z,9.37
2018-03-20T11:32:37.056Z,6.80
2018-03-20T11:35:03.337Z,8.33
2018-03-20T11:37:29.604Z,7.93
2018-03-20T11:39:55.874Z,8.17
2018-03-20T11:42:22.902Z,7.87
2018-03-20T11:44:49.342Z,8.13
2018-03-20T11:47:15.914Z,8.33
2018-03-20T11:49:42.775Z,8.83
2018-03-20T11:52:09.230Z,8.50
2018-03-20T11:54:35.586Z,8.00
2018-03-20T11:57:01.917Z,7.73
2018-03-20T11:59:28.328Z,9.00
2018-03-20T12:01:54.689Z,8.10
2018-03-20T12:04:23.252Z,7.60
2018-03-20T12:06:49.708Z,7.20
2018-03-20T12:09:31.181Z,7.33
2018-03-20T12:11:58.513Z,7.23
2018-03-20T12:14:25.533Z,6.70
2018-03-20T12:16:52.054Z,9.73
2018-03-20T12:19:19.203Z,11.73
2018-03-20T12:21:45.767Z,8.30
2018-03-20T12:26:46.050Z,10.03
2018-03-20T12:29:12.823Z,10.10
2018-03-20T12:31:39.536Z,8.07
2018-03-20T12:34:06.945Z,8.23
2018-03-20T12:36:33.421Z,7.97
2018-03-20T12:38:59.853Z,8.13
2018-03-20T12:41:26.725Z,8.50
2018-03-20T12:43:53.104Z,7.20
2018-03-20T12:46:20.204Z,9.73
2018-03-20T12:49:02.363Z,8.33
2018-03-20T12:51:28.698Z,9.53
2018-03-20T12:53:57.121Z,8.30
2018-03-20T12:56:23.453Z,9.03
2018-03-20T12:58:50.660Z,7.57
2018-03-20T13:01:31.691Z,9.00
2018-03-20T13:03:58.145Z,8.67
2018-03-20T13:06:36.258Z,9.10
2018-03-20T13:09:15.764Z,12.23
2018-03-20T13:11:43.745Z,8.97
2018-03-20T13:14:12.821Z,10.30
2018-03-20T13:16:39.197Z,10.87
2018-03-20T13:19:05.569Z,11.70
2018-03-20T13:21:31.902Z,12.40
2018-03-20T13:24:00.450Z,10.27
2018-03-20T13:26:26.907Z,10.43
2018-03-20T13:28:53.359Z,11.53
2018-03-20T13:31:19.708Z,9.90
2018-03-20T13:33:46.245Z,10.20
2018-03-20T13:36:13.263Z,13.10
2018-03-20T13:38:40.456Z,8.80
2018-03-20T13:41:07.462Z,8.63
2018-03-20T13:43:33.755Z,8.33
2018-03-20T13:46:02.108Z,9.33
2018-03-20T13:48:28.607Z,9.57
2018-03-20T13:50:58.569Z,8.90
2018-03-20T13:53:30.602Z,10.87
2018-03-20T13:55:56.929Z,8.70
2018-03-20T13:58:26.259Z,9.37
2018-03-20T14:00:52.679Z,9.57
2018-03-20T14:03:19.083Z,10.67
2018-03-20T14:05:46.595Z,10.33
2018-03-20T14:08:13.926Z,10.77
2018-03-20T14:10:40.459Z,9.87
2018-03-20T14:13:08.659Z,11.67
2018-03-20T14:15:35.035Z,11.53
2018-03-20T14:18:01.402Z,11.90
2018-03-20T14:20:28.440Z,9.47
2018-03-20T14:22:59.171Z,9.37
2018-03-20T14:25:26.456Z,9.13
2018-03-20T14:27:52.763Z,19.17
2018-03-20T14:30:19.182Z,8.47
2018-03-20T14:32:51.218Z,9.87
2018-03-20T14:35:18.711Z,10.13
2018-03-20T14:37:45.808Z,9.20
2018-03-20T14:40:12.452Z,14.57
2018-03-20T14:42:38.916Z,14.97
2018-03-20T14:45:05.649Z,21.03
2018-03-20T14:47:32.632Z,12.00
2018-03-20T14:49:59.031Z,10.57
2018-03-20T14:52:28.504Z,17.17
2018-03-20T14:54:55.579Z,9.13
2018-03-20T14:57:26.335Z,12.33
2018-03-20T14:59:52.650Z,13.93
2018-03-20T15:02:19.041Z,12.57
2018-03-20T15:04:46.259Z,8.10
2018-03-20T15:07:13.259Z,8.13
2018-03-20T15:09:39.649Z,7.93
2018-03-20T15:12:06.078Z,8.70
2018-03-20T15:14:32.438Z,10.10
2018-03-20T15:16:58.897Z,11.50
2018-03-20T15:19:25.603Z,8.00
2018-03-20T15:21:51.995Z,7.47
2018-03-20T15:24:18.516Z,11.73
2018-03-20T15:26:45.221Z,8.10
2018-03-20T15:29:12.826Z,8.03
2018-03-20T15:31:39.376Z,8.33
2018-03-20T15:34:06.094Z,8.20
2018-03-20T15:36:32.506Z,8.80
2018-03-20T15:38:58.925Z,8.90
2018-03-20T15:41:25.958Z,8.23
2018-03-20T15:43:53.025Z,8.23
2018-03-20T15:46:19.357Z,7.47
2018-03-20T15:48:52.355Z,6.83
2018-03-20T15:51:20.391Z,6.80
2018-03-20T15:53:46.716Z,6.60
2018-03-20T15:56:13.506Z,6.50
2018-03-20T15:58:40.072Z,7.17
2018-03-20T16:01:06.543Z,6.43
2018-03-20T16:03:33.599Z,7.73
2018-03-20T16:06:00.632Z,6.57
2018-03-20T16:08:26.926Z,6.13
2018-03-20T16:10:53.240Z,7.60
2018-03-20T16:13:20.350Z,8.03
2018-03-20T16:15:50.680Z,11.87
2018-03-20T16:18:17.075Z,16.97
2018-03-20T16:20:44.391Z,20.27
2018-03-20T16:23:10.832Z,21.23
2018-03-20T16:25:38.322Z,20.97
2018-03-20T16:28:04.815Z,20.33
2018-03-20T16:30:31.901Z,16.93
2018-03-20T16:32:58.363Z,13.40
2018-03-20T16:35:24.751Z,12.47
2018-03-20T16:37:51.067Z,11.83
2018-03-20T16:40:17.636Z,10.93
2018-03-20T16:42:45.307Z,14.57
2018-03-20T16:45:12.447Z,14.30
2018-03-20T16:47:38.950Z,19.40
2018-03-20T16:50:05.983Z,17.67
2018-03-20T16:52:32.346Z,20.87
2018-03-20T16:54:59.591Z,21.30
2018-03-20T16:57:31.025Z,22.20
2018-03-20T16:59:57.604Z,24.53
2018-03-20T17:02:24.008Z,24.97
2018-03-20T17:04:50.570Z,23.67
2018-03-20T17:07:16.922Z,23.67
2018-03-20T17:09:43.422Z,23.93
2018-03-20T17:12:09.880Z,24.37
2018-03-20T17:14:36.249Z,24.23
2018-03-20T17:17:02.526Z,25.50
2018-03-20T17:19:33.564Z,26.00
2018-03-20T17:21:59.886Z,23.03
2018-03-20T17:24:26.414Z,26.00
2018-03-20T17:26:52.781Z,25.47
2018-03-20T17:29:19.173Z,25.47
2018-03-20T17:31:45.630Z,28.10
2018-03-20T17:34:12.800Z,25.60
2018-03-20T17:36:40.409Z,23.77
2018-03-20T17:39:06.920Z,25.70
2018-03-20T17:41:33.503Z,22.57
2018-03-20T17:44:01.202Z,20.60
2018-03-20T17:46:27.553Z,20.37
2018-03-20T17:48:53.975Z,18.93
2018-03-20T17:51:26.202Z,18.43
2018-03-20T17:53:52.586Z,16.60
2018-03-20T17:56:19.067Z,17.33
2018-03-20T17:58:45.545Z,15.80
2018-03-20T18:01:12.817Z,17.30
2018-03-20T18:03:39.361Z,16.37
2018-03-20T18:06:05.725Z,17.07
2018-03-20T18:08:32.273Z,16.33
2018-03-20T18:10:58.581Z,15.80
2018-03-20T18:13:25.638Z,14.50
2018-03-20T18:16:00.159Z,14.33
2018-03-20T18:18:26.511Z,17.20
2018-03-20T18:20:52.858Z,17.17
2018-03-20T18:23:19.446Z,16.27
2018-03-20T18:25:46.076Z,17.77
2018-03-20T18:28:12.482Z,20.37
2018-03-20T18:30:38.825Z,22.80
2018-03-20T18:33:06.161Z,21.23
2018-03-20T18:35:32.580Z,24.43
2018-03-20T18:37:59.619Z,26.23
2018-03-20T18:40:31.995Z,24.00
2018-03-20T18:42:58.431Z,20.13
2018-03-20T18:45:28.418Z,20.23
2018-03-20T18:47:54.960Z,23.27
2018-03-20T18:50:21.347Z,23.13
2018-03-20T18:52:47.746Z,23.43
2018-03-20T18:55:14.103Z,26.30
2018-03-20T18:57:42.642Z,30.67
2018-03-20T19:00:09.155Z,30.30
2018-03-20T19:02:36.523Z,29.13
2018-03-20T19:05:02.868Z,30.53
2018-03-20T19:07:33.372Z,30.90
2018-03-20T19:12:54.246Z,28.07
2018-03-20T19:15:20.517Z,27.50
2018-03-20T19:17:46.797Z,25.63
2018-03-20T19:20:13.376Z,27.87
2018-03-20T19:22:39.725Z,23.37
2018-03-20T19:25:06.006Z,19.27
2018-03-20T19:27:32.432Z,21.23
2018-03-20T19:30:04.269Z,21.50
2018-03-20T19:32:30.702Z,20.73
2018-03-20T19:34:57.787Z,20.57
2018-03-20T19:37:33.382Z,18.63
2018-03-20T19:40:00.510Z,20.87
2018-03-20T19:42:27.091Z,19.43
2018-03-20T19:44:53.613Z,19.87
2018-03-20T19:47:20.218Z,19.93
2018-03-20T19:49:46.603Z,17.10
2018-03-20T19:52:13.421Z,16.37
2018-03-20T19:54:39.884Z,15.00
2018-03-20T19:57:06.381Z,17.97
2018-03-20T19:59:32.807Z,14.00
2018-03-20T20:02:00.228Z,15.97
2018-03-20T20:04:27.383Z,14.37
2018-03-20T20:06:53.883Z,13.47
2018-03-20T20:09:21.209Z,14.30
2018-03-20T20:11:59.198Z,11.37
2018-03-20T20:14:25.629Z,14.77
2018-03-20T20:16:52.191Z,12.67
2018-03-20T20:19:18.588Z,15.97
2018-03-20T20:21:45.402Z,12.47
2018-03-20T20:24:17.082Z,14.97
2018-03-20T20:26:46.583Z,14.67
2018-03-20T20:29:13.710Z,14.53
2018-03-20T20:31:40.122Z,19.47
2018-03-20T20:34:09.773Z,14.80
2018-03-20T20:36:36.201Z,17.57
2018-03-20T20:39:03.345Z,13.83
2018-03-20T20:41:29.740Z,11.87
2018-03-20T20:43:56.114Z,15.03
2018-03-20T20:46:40.118Z,13.23
2018-03-20T20:49:07.568Z,14.40
2018-03-20T20:51:34.001Z,16.03
2018-03-20T20:54:14.425Z,13.73
2018-03-20T20:56:41.051Z,12.87
2018-03-20T20:59:08.317Z,15.10
2018-03-20T21:01:34.772Z,17.70
2018-03-20T21:04:01.201Z,11.70
2018-03-20T21:06:28.331Z,12.97
2018-03-20T21:08:54.667Z,12.07
2018-03-20T21:11:21.040Z,12.90
2018-03-20T21:13:48.176Z,12.30
2018-03-20T21:16:14.694Z,11.67
2018-03-20T21:18:41.172Z,14.27
2018-03-20T21:21:08.793Z,13.90
2018-03-20T21:23:35.465Z,13.80
2018-03-20T21:26:01.887Z,12.20
2018-03-20T21:28:28.283Z,12.67
2018-03-20T21:30:54.671Z,12.20
2018-03-20T21:33:21.043Z,12.67
2018-03-20T21:35:47.688Z,10.63
2018-03-20T21:38:15.023Z,12.67
2018-03-20T21:40:42.429Z,10.23
2018-03-20T21:43:08.899Z,12.33
2018-03-20T21:45:35.325Z,10.40
2018-03-20T21:48:01.667Z,11.77
2018-03-20T21:50:28.032Z,11.43
2018-03-20T21:53:07.146Z,10.37
2018-03-20T21:55:33.446Z,10.80
2018-03-20T21:58:08.376Z,9.93
2018-03-20T22:00:35.089Z,9.43
2018-03-20T22:03:02.504Z,11.10
2018-03-20T22:05:28.831Z,10.03
2018-03-20T22:07:55.418Z,9.27
2018-03-20T22:10:22.666Z,9.63
2018-03-20T22:12:48.973Z,11.90
2018-03-20T22:15:15.577Z,8.53
2018-03-20T22:17:43.298Z,8.40
2018-03-20T22:20:10.590Z,9.07
2018-03-20T22:22:37.086Z,9.53
2018-03-20T22:25:03.440Z,6.77
2018-03-20T22:27:34.366Z,9.00
2018-03-20T22:30:00.641Z,9.63
2018-03-20T22:32:26.993Z,7.63
2018-03-20T22:34:53.268Z,10.67
2018-03-20T22:37:19.555Z,8.57
2018-03-20T22:39:45.795Z,7.13
2018-03-20T22:42:12.046Z,7.50
2018-03-20T22:44:38.642Z,9.13
2018-03-20T22:47:04.889Z,9.10
2018-03-20T22:49:31.180Z,8.90
2018-03-20T22:51:57.464Z,8.07
2018-03-20T22:54:23.763Z,7.07
2018-03-20T22:56:50.001Z,8.07
2018-03-20T22:59:16.610Z,7.07
2018-03-20T23:01:42.914Z,10.27
2018-03-20T23:04:09.165Z,7.30
2018-03-20T23:06:35.443Z,6.90
2018-03-20T23:09:07.155Z,8.33
2018-03-20T23:11:33.408Z,9.47
2018-03-20T23:13:59.682Z,9.80
2018-03-20T23:16:25.944Z,6.33
2018-03-20T23:18:53.009Z,7.70
2018-03-20T23:21:19.986Z,7.17
2018-03-20T23:24:00.071Z,7.47
2018-03-20T23:26:26.301Z,6.10
2018-03-20T23:28:52.566Z,7.13
2018-03-20T23:31:19.038Z,10.23
2018-03-20T23:33:45.345Z,8.47
2018-03-20T23:36:11.632Z,8.63
2018-03-20T23:38:38.181Z,7.13
2018-03-20T23:41:04.534Z,6.07
2018-03-20T23:43:30.797Z,6.27
2018-03-20T23:45:57.761Z,7.37
2018-03-20T23:48:24.006Z,6.47
2018-03-20T23:51:01.154Z,6.10
2018-03-20T23:53:27.422Z,7.07
2018-03-20T23:55:54.386Z,7.43
2018-03-20T23:58:21.434Z,6.90
